Главная страница
METAR-TAF:

METAR-TAF

Аэропорты :

Алис-Спрингс, Австралия

широта: 23-48S, долгота: 133-53E, высота над уровнем моря: 545 м

Текущие метеонаблюдения

Эта сводка был подготовлена 37 минут назад, в 18:30 UTC
Ветер 4 Узел от западно-северо-западный
Температура 14°C
Влажность 44%
Давление 1017 hPa
Видимость 10 км и более

METAR: YBAS 231830Z AUTO 29004KT 9999 // NCD 14/02 Q1017 RF00.0/000.0

Время: 04:37 (19:07 UTC)

Прогноз

Эта сводка был подготовлена 2 часа и 0 минут назад, в 17:07 UTC
Прогноз действительный с 23-го 18 UTC до 24-го 18 UTC
Ветер 4 Узел от северно-северо-западный
Видимость 10 км и более
Нет облачности ниже 1500 м, и нет кучево-дождевой облачности
С 24-го 0000 UTC
Ветер 8 Узел от восточный
Видимость 10 км и более
Нет облачности ниже 1500 м, и нет кучево-дождевой облачности

TAF: YBAS 231707Z 2318/2418 33004KT CAVOK FM240000 10008KT CAVOK

Метеонаблюдения и прогнозы для более 4000 аэропортов (сводки METAR и TAF).

Имеющиеся станции представлены на карте желтыми и красными точками.

Чтобы увидеть название станции, наведите на нее мышь.

Затем щелкните, чтобы увидеть метеонаблюдения и метеопрогнозы.

Управление картой: чтобы увеличить масштаб, щелкните зеленые кнопки с черным крестиком; чтобы уменьшить масштаб, щелкните зеленую кнопку с тире; для просмотра соседних карт щелкайте зеленые стрелки.


METAR-TAF: